sensor_id;sensor_type;location;lat;lon;timestamp;temperature;humidity
28171;DHT22;15458;53.346;-1.688;2023-04-29T00:00:24;8.30;99.90
28171;DHT22;15458;53.346;-1.688;2023-04-29T00:02:50;8.30;99.90
28171;DHT22;15458;53.346;-1.688;2023-04-29T00:05:16;8.30;99.90
28171;DHT22;15458;53.346;-1.688;2023-04-29T00:07:42;8.40;99.90
28171;DHT22;15458;53.346;-1.688;2023-04-29T00:10:08;8.40;99.90
28171;DHT22;15458;53.346;-1.688;2023-04-29T00:12:34;8.40;99.90
28171;DHT22;15458;53.346;-1.688;2023-04-29T00:15:00;8.40;99.90
28171;DHT22;15458;53.346;-1.688;2023-04-29T00:17:27;8.40;99.90
28171;DHT22;15458;53.346;-1.688;2023-04-29T00:19:53;8.40;99.90
28171;DHT22;15458;53.346;-1.688;2023-04-29T00:22:19;8.40;99.90
28171;DHT22;15458;53.346;-1.688;2023-04-29T00:24:46;8.40;99.90
28171;DHT22;15458;53.346;-1.688;2023-04-29T00:27:12;8.40;99.90
28171;DHT22;15458;53.346;-1.688;2023-04-29T00:29:37;8.40;99.90
28171;DHT22;15458;53.346;-1.688;2023-04-29T00:32:03;8.40;99.90
28171;DHT22;15458;53.346;-1.688;2023-04-29T00:34:29;8.40;99.90
28171;DHT22;15458;53.346;-1.688;2023-04-29T00:36:55;8.40;99.90
28171;DHT22;15458;53.346;-1.688;2023-04-29T00:39:20;8.40;99.90
28171;DHT22;15458;53.346;-1.688;2023-04-29T00:41:46;8.40;99.90
28171;DHT22;15458;53.346;-1.688;2023-04-29T00:44:12;8.40;99.90
28171;DHT22;15458;53.346;-1.688;2023-04-29T00:46:38;8.40;99.90
28171;DHT22;15458;53.346;-1.688;2023-04-29T00:49:04;8.40;99.90
28171;DHT22;15458;53.346;-1.688;2023-04-29T00:51:30;8.30;99.90
28171;DHT22;15458;53.346;-1.688;2023-04-29T00:53:56;8.30;99.90
28171;DHT22;15458;53.346;-1.688;2023-04-29T00:56:21;8.20;99.90
28171;DHT22;15458;53.346;-1.688;2023-04-29T00:58:47;8.20;99.90
28171;DHT22;15458;53.346;-1.688;2023-04-29T01:01:18;8.10;99.90
28171;DHT22;15458;53.346;-1.688;2023-04-29T01:03:44;8.10;99.90
28171;DHT22;15458;53.346;-1.688;2023-04-29T01:06:48;8.00;99.90
28171;DHT22;15458;53.346;-1.688;2023-04-29T01:12:23;8.00;99.90
28171;DHT22;15458;53.346;-1.688;2023-04-29T01:15:11;8.00;99.90
28171;DHT22;15458;53.346;-1.688;2023-04-29T01:17:49;8.10;99.90
28171;DHT22;15458;53.346;-1.688;2023-04-29T01:20:15;8.10;99.90
28171;DHT22;15458;53.346;-1.688;2023-04-29T01:22:42;8.10;99.90
28171;DHT22;15458;53.346;-1.688;2023-04-29T01:25:08;8.10;99.90
28171;DHT22;15458;53.346;-1.688;2023-04-29T01:35:59;8.10;99.90
28171;DHT22;15458;53.346;-1.688;2023-04-29T01:44:07;8.10;99.90
28171;DHT22;15458;53.346;-1.688;2023-04-29T01:46:38;8.10;99.90
28171;DHT22;15458;53.346;-1.688;2023-04-29T01:49:06;8.10;99.90
28171;DHT22;15458;53.346;-1.688;2023-04-29T01:51:32;8.10;99.90
28171;DHT22;15458;53.346;-1.688;2023-04-29T01:53:59;8.10;99.90
28171;DHT22;15458;53.346;-1.688;2023-04-29T01:56:24;8.00;99.90
28171;DHT22;15458;53.346;-1.688;2023-04-29T01:58:50;8.00;99.90
28171;DHT22;15458;53.346;-1.688;2023-04-29T02:01:16;8.00;99.90
28171;DHT22;15458;53.346;-1.688;2023-04-29T02:03:41;8.00;99.90
28171;DHT22;15458;53.346;-1.688;2023-04-29T02:06:07;7.90;99.90
28171;DHT22;15458;53.346;-1.688;2023-04-29T02:08:33;7.90;99.90
28171;DHT22;15458;53.346;-1.688;2023-04-29T02:10:58;7.90;99.90
28171;DHT22;15458;53.346;-1.688;2023-04-29T02:13:25;7.80;99.90
28171;DHT22;15458;53.346;-1.688;2023-04-29T02:15:51;7.80;99.90
28171;DHT22;15458;53.346;-1.688;2023-04-29T02:18:16;7.80;99.90
28171;DHT22;15458;53.346;-1.688;2023-04-29T02:20:42;7.80;99.90
28171;DHT22;15458;53.346;-1.688;2023-04-29T02:23:08;7.70;99.90
28171;DHT22;15458;53.346;-1.688;2023-04-29T02:25:34;7.70;99.90
28171;DHT22;15458;53.346;-1.688;2023-04-29T02:27:59;7.70;99.90
28171;DHT22;15458;53.346;-1.688;2023-04-29T02:30:25;7.70;99.90
28171;DHT22;15458;53.346;-1.688;2023-04-29T02:32:51;7.60;99.90
28171;DHT22;15458;53.346;-1.688;2023-04-29T02:35:17;7.60;99.90
28171;DHT22;15458;53.346;-1.688;2023-04-29T02:37:43;7.60;99.90
28171;DHT22;15458;53.346;-1.688;2023-04-29T02:40:10;7.60;99.90
28171;DHT22;15458;53.346;-1.688;2023-04-29T02:42:36;7.50;99.90
28171;DHT22;15458;53.346;-1.688;2023-04-29T02:45:02;7.60;99.90
28171;DHT22;15458;53.346;-1.688;2023-04-29T02:47:28;7.60;99.90
28171;DHT22;15458;53.346;-1.688;2023-04-29T02:49:54;7.60;99.90
28171;DHT22;15458;53.346;-1.688;2023-04-29T02:52:20;7.60;99.90
28171;DHT22;15458;53.346;-1.688;2023-04-29T02:54:45;7.50;99.90
28171;DHT22;15458;53.346;-1.688;2023-04-29T02:57:11;7.50;99.90
28171;DHT22;15458;53.346;-1.688;2023-04-29T02:59:37;7.50;99.90
28171;DHT22;15458;53.346;-1.688;2023-04-29T03:02:02;7.40;99.90
28171;DHT22;15458;53.346;-1.688;2023-04-29T03:04:28;7.40;99.90
28171;DHT22;15458;53.346;-1.688;2023-04-29T03:06:55;7.40;99.90
28171;DHT22;15458;53.346;-1.688;2023-04-29T03:09:23;7.40;99.90
28171;DHT22;15458;53.346;-1.688;2023-04-29T03:11:49;7.30;99.90
28171;DHT22;15458;53.346;-1.688;2023-04-29T03:14:15;7.30;99.90
28171;DHT22;15458;53.346;-1.688;2023-04-29T03:16:41;7.30;99.90
28171;DHT22;15458;53.346;-1.688;2023-04-29T03:19:07;7.30;99.90
28171;DHT22;15458;53.346;-1.688;2023-04-29T03:21:33;7.30;99.90
28171;DHT22;15458;53.346;-1.688;2023-04-29T03:23:58;7.30;99.90
28171;DHT22;15458;53.346;-1.688;2023-04-29T03:26:24;7.30;99.90
28171;DHT22;15458;53.346;-1.688;2023-04-29T03:28:50;7.30;99.90
28171;DHT22;15458;53.346;-1.688;2023-04-29T03:31:16;7.30;99.90
28171;DHT22;15458;53.346;-1.688;2023-04-29T03:33:42;7.30;99.90
28171;DHT22;15458;53.346;-1.688;2023-04-29T03:36:08;7.30;99.90
28171;DHT22;15458;53.346;-1.688;2023-04-29T03:38:34;7.30;99.90
28171;DHT22;15458;53.346;-1.688;2023-04-29T03:41:00;7.30;99.90
28171;DHT22;15458;53.346;-1.688;2023-04-29T03:43:26;7.40;99.90
28171;DHT22;15458;53.346;-1.688;2023-04-29T03:45:52;7.30;99.90
28171;DHT22;15458;53.346;-1.688;2023-04-29T03:48:18;7.40;99.90
28171;DHT22;15458;53.346;-1.688;2023-04-29T03:50:46;7.40;99.90
28171;DHT22;15458;53.346;-1.688;2023-04-29T03:53:12;7.30;99.90
28171;DHT22;15458;53.346;-1.688;2023-04-29T03:55:37;7.30;99.90
28171;DHT22;15458;53.346;-1.688;2023-04-29T03:58:04;7.30;99.90
28171;DHT22;15458;53.346;-1.688;2023-04-29T04:00:30;7.20;99.90
28171;DHT22;15458;53.346;-1.688;2023-04-29T04:02:59;7.20;99.90
28171;DHT22;15458;53.346;-1.688;2023-04-29T04:05:25;7.20;99.90
28171;DHT22;15458;53.346;-1.688;2023-04-29T04:07:51;7.20;99.90
28171;DHT22;15458;53.346;-1.688;2023-04-29T04:10:17;7.20;99.90
28171;DHT22;15458;53.346;-1.688;2023-04-29T04:12:43;7.10;99.90
28171;DHT22;15458;53.346;-1.688;2023-04-29T04:15:10;7.10;99.90
28171;DHT22;15458;53.346;-1.688;2023-04-29T04:17:35;7.10;99.90
28171;DHT22;15458;53.346;-1.688;2023-04-29T04:20:01;7.10;99.90
28171;DHT22;15458;53.346;-1.688;2023-04-29T04:22:27;7.10;99.90
28171;DHT22;15458;53.346;-1.688;2023-04-29T04:24:55;7.00;99.90
28171;DHT22;15458;53.346;-1.688;2023-04-29T04:27:21;7.00;99.90
28171;DHT22;15458;53.346;-1.688;2023-04-29T04:29:47;7.00;99.90
28171;DHT22;15458;53.346;-1.688;2023-04-29T04:32:12;7.00;99.90
28171;DHT22;15458;53.346;-1.688;2023-04-29T04:34:38;7.00;99.90
28171;DHT22;15458;53.346;-1.688;2023-04-29T04:37:04;6.90;99.90
28171;DHT22;15458;53.346;-1.688;2023-04-29T04:39:32;6.90;99.90
28171;DHT22;15458;53.346;-1.688;2023-04-29T04:41:58;6.80;99.90
28171;DHT22;15458;53.346;-1.688;2023-04-29T04:44:23;6.80;99.90
28171;DHT22;15458;53.346;-1.688;2023-04-29T04:46:52;6.80;99.90
28171;DHT22;15458;53.346;-1.688;2023-04-29T04:49:18;6.80;99.90
28171;DHT22;15458;53.346;-1.688;2023-04-29T04:51:44;6.80;99.90
28171;DHT22;15458;53.346;-1.688;2023-04-29T04:54:10;6.70;99.90
28171;DHT22;15458;53.346;-1.688;2023-04-29T04:56:35;6.70;99.90
28171;DHT22;15458;53.346;-1.688;2023-04-29T04:59:02;6.70;99.90
28171;DHT22;15458;53.346;-1.688;2023-04-29T05:01:28;6.70;99.90
28171;DHT22;15458;53.346;-1.688;2023-04-29T05:03:54;6.60;99.90
28171;DHT22;15458;53.346;-1.688;2023-04-29T05:06:20;6.60;99.90
28171;DHT22;15458;53.346;-1.688;2023-04-29T05:08:45;6.60;99.90
28171;DHT22;15458;53.346;-1.688;2023-04-29T05:11:16;6.60;99.90
28171;DHT22;15458;53.346;-1.688;2023-04-29T05:13:42;6.60;99.90
28171;DHT22;15458;53.346;-1.688;2023-04-29T05:16:07;6.60;99.90
28171;DHT22;15458;53.346;-1.688;2023-04-29T05:18:33;6.60;99.90
28171;DHT22;15458;53.346;-1.688;2023-04-29T05:20:59;6.60;99.90
28171;DHT22;15458;53.346;-1.688;2023-04-29T05:23:25;6.70;99.90
28171;DHT22;15458;53.346;-1.688;2023-04-29T05:25:50;6.70;99.90
28171;DHT22;15458;53.346;-1.688;2023-04-29T05:28:16;6.70;99.90
28171;DHT22;15458;53.346;-1.688;2023-04-29T05:30:42;6.60;99.90
28171;DHT22;15458;53.346;-1.688;2023-04-29T05:33:08;6.70;99.90
28171;DHT22;15458;53.346;-1.688;2023-04-29T05:35:34;6.60;99.90
28171;DHT22;15458;53.346;-1.688;2023-04-29T05:37:59;6.70;99.90
28171;DHT22;15458;53.346;-1.688;2023-04-29T05:40:25;6.70;99.90
28171;DHT22;15458;53.346;-1.688;2023-04-29T05:42:51;6.60;99.90
28171;DHT22;15458;53.346;-1.688;2023-04-29T05:45:17;6.60;99.90
28171;DHT22;15458;53.346;-1.688;2023-04-29T05:47:42;6.60;99.90
28171;DHT22;15458;53.346;-1.688;2023-04-29T05:50:08;6.60;99.90
28171;DHT22;15458;53.346;-1.688;2023-04-29T05:52:34;6.70;99.90
28171;DHT22;15458;53.346;-1.688;2023-04-29T05:55:00;6.70;99.90
28171;DHT22;15458;53.346;-1.688;2023-04-29T05:57:27;6.70;99.90
28171;DHT22;15458;53.346;-1.688;2023-04-29T05:59:52;6.70;99.90
28171;DHT22;15458;53.346;-1.688;2023-04-29T06:02:21;6.80;99.90
28171;DHT22;15458;53.346;-1.688;2023-04-29T06:04:47;6.80;99.90
28171;DHT22;15458;53.346;-1.688;2023-04-29T06:07:13;6.90;99.90
28171;DHT22;15458;53.346;-1.688;2023-04-29T06:09:39;6.90;99.90
28171;DHT22;15458;53.346;-1.688;2023-04-29T06:12:08;7.00;99.90
28171;DHT22;15458;53.346;-1.688;2023-04-29T06:14:33;7.10;99.90
28171;DHT22;15458;53.346;-1.688;2023-04-29T06:16:59;7.20;99.90
28171;DHT22;15458;53.346;-1.688;2023-04-29T06:19:25;7.30;99.90
28171;DHT22;15458;53.346;-1.688;2023-04-29T06:21:51;7.30;99.90
28171;DHT22;15458;53.346;-1.688;2023-04-29T06:24:16;7.40;99.90
28171;DHT22;15458;53.346;-1.688;2023-04-29T06:26:42;7.50;99.90
28171;DHT22;15458;53.346;-1.688;2023-04-29T06:29:08;7.50;99.90
28171;DHT22;15458;53.346;-1.688;2023-04-29T06:31:34;7.60;99.90
28171;DHT22;15458;53.346;-1.688;2023-04-29T06:33:59;7.70;99.90
28171;DHT22;15458;53.346;-1.688;2023-04-29T06:36:25;7.70;99.90
28171;DHT22;15458;53.346;-1.688;2023-04-29T06:38:51;7.80;99.90
28171;DHT22;15458;53.346;-1.688;2023-04-29T06:41:17;7.90;99.90
28171;DHT22;15458;53.346;-1.688;2023-04-29T06:43:43;7.90;99.90
28171;DHT22;15458;53.346;-1.688;2023-04-29T06:46:09;8.00;99.90
28171;DHT22;15458;53.346;-1.688;2023-04-29T06:48:36;8.10;99.90
28171;DHT22;15458;53.346;-1.688;2023-04-29T06:51:02;8.10;99.90
28171;DHT22;15458;53.346;-1.688;2023-04-29T06:53:28;8.20;99.90
28171;DHT22;15458;53.346;-1.688;2023-04-29T06:55:53;8.30;99.90
28171;DHT22;15458;53.346;-1.688;2023-04-29T06:58:19;8.30;99.90
28171;DHT22;15458;53.346;-1.688;2023-04-29T07:00:46;8.40;99.90
28171;DHT22;15458;53.346;-1.688;2023-04-29T07:03:13;8.50;99.90
28171;DHT22;15458;53.346;-1.688;2023-04-29T07:05:39;8.50;99.90
28171;DHT22;15458;53.346;-1.688;2023-04-29T07:08:07;8.60;99.90
28171;DHT22;15458;53.346;-1.688;2023-04-29T07:10:33;8.70;99.90
28171;DHT22;15458;53.346;-1.688;2023-04-29T07:12:59;8.70;99.90
28171;DHT22;15458;53.346;-1.688;2023-04-29T07:15:26;8.80;99.90
28171;DHT22;15458;53.346;-1.688;2023-04-29T07:17:52;8.90;99.90
28171;DHT22;15458;53.346;-1.688;2023-04-29T07:20:17;8.90;99.90
28171;DHT22;15458;53.346;-1.688;2023-04-29T07:22:43;9.00;99.90
28171;DHT22;15458;53.346;-1.688;2023-04-29T07:25:09;9.00;99.90
28171;DHT22;15458;53.346;-1.688;2023-04-29T07:27:35;9.10;99.90
28171;DHT22;15458;53.346;-1.688;2023-04-29T07:30:03;9.10;99.90
28171;DHT22;15458;53.346;-1.688;2023-04-29T07:32:29;9.20;99.90
28171;DHT22;15458;53.346;-1.688;2023-04-29T07:34:59;9.30;99.90
28171;DHT22;15458;53.346;-1.688;2023-04-29T07:37:25;9.30;99.90
28171;DHT22;15458;53.346;-1.688;2023-04-29T07:39:51;9.30;99.90
28171;DHT22;15458;53.346;-1.688;2023-04-29T07:42:17;9.40;99.90
28171;DHT22;15458;53.346;-1.688;2023-04-29T07:44:43;9.40;99.90
28171;DHT22;15458;53.346;-1.688;2023-04-29T07:47:10;9.50;99.90
28171;DHT22;15458;53.346;-1.688;2023-04-29T07:49:36;9.50;99.90
28171;DHT22;15458;53.346;-1.688;2023-04-29T07:52:03;9.60;99.90
28171;DHT22;15458;53.346;-1.688;2023-04-29T07:54:29;9.70;99.90
28171;DHT22;15458;53.346;-1.688;2023-04-29T07:56:57;9.70;99.90
28171;DHT22;15458;53.346;-1.688;2023-04-29T07:59:26;9.80;99.90
28171;DHT22;15458;53.346;-1.688;2023-04-29T08:01:51;9.80;99.90
28171;DHT22;15458;53.346;-1.688;2023-04-29T08:04:18;9.90;99.90
28171;DHT22;15458;53.346;-1.688;2023-04-29T08:06:43;10.00;99.90
28171;DHT22;15458;53.346;-1.688;2023-04-29T08:09:09;10.00;99.90
28171;DHT22;15458;53.346;-1.688;2023-04-29T08:11:35;10.10;99.90
28171;DHT22;15458;53.346;-1.688;2023-04-29T08:14:01;10.20;99.90
28171;DHT22;15458;53.346;-1.688;2023-04-29T08:16:27;10.20;99.90
28171;DHT22;15458;53.346;-1.688;2023-04-29T08:18:53;10.30;99.90
28171;DHT22;15458;53.346;-1.688;2023-04-29T08:21:19;10.40;99.90
28171;DHT22;15458;53.346;-1.688;2023-04-29T08:23:45;10.50;99.90
28171;DHT22;15458;53.346;-1.688;2023-04-29T08:26:11;10.60;99.90
28171;DHT22;15458;53.346;-1.688;2023-04-29T08:28:39;10.80;99.90
28171;DHT22;15458;53.346;-1.688;2023-04-29T08:31:05;10.90;99.90
28171;DHT22;15458;53.346;-1.688;2023-04-29T08:33:35;11.10;99.90
28171;DHT22;15458;53.346;-1.688;2023-04-29T08:36:01;11.10;99.90
28171;DHT22;15458;53.346;-1.688;2023-04-29T08:38:29;11.20;99.90
28171;DHT22;15458;53.346;-1.688;2023-04-29T08:40:55;11.30;99.90
28171;DHT22;15458;53.346;-1.688;2023-04-29T08:43:21;11.40;99.90
28171;DHT22;15458;53.346;-1.688;2023-04-29T08:45:50;11.50;99.90
28171;DHT22;15458;53.346;-1.688;2023-04-29T08:48:16;11.60;99.90
28171;DHT22;15458;53.346;-1.688;2023-04-29T08:50:43;11.70;99.90
28171;DHT22;15458;53.346;-1.688;2023-04-29T08:53:11;11.90;99.90
28171;DHT22;15458;53.346;-1.688;2023-04-29T08:55:44;12.20;99.90
28171;DHT22;15458;53.346;-1.688;2023-04-29T08:58:11;12.40;99.90
28171;DHT22;15458;53.346;-1.688;2023-04-29T09:00:39;12.70;99.90
28171;DHT22;15458;53.346;-1.688;2023-04-29T09:03:17;12.90;99.90
28171;DHT22;15458;53.346;-1.688;2023-04-29T09:05:48;13.00;99.90
28171;DHT22;15458;53.346;-1.688;2023-04-29T09:08:15;13.20;99.90
28171;DHT22;15458;53.346;-1.688;2023-04-29T09:10:41;13.30;99.90
28171;DHT22;15458;53.346;-1.688;2023-04-29T09:13:08;13.40;99.90
28171;DHT22;15458;53.346;-1.688;2023-04-29T09:15:37;13.50;99.90
28171;DHT22;15458;53.346;-1.688;2023-04-29T09:18:05;13.70;99.90
28171;DHT22;15458;53.346;-1.688;2023-04-29T09:20:31;13.90;99.90
28171;DHT22;15458;53.346;-1.688;2023-04-29T09:23:01;14.20;99.90
28171;DHT22;15458;53.346;-1.688;2023-04-29T09:25:30;14.40;99.90
28171;DHT22;15458;53.346;-1.688;2023-04-29T09:27:56;14.70;99.90
28171;DHT22;15458;53.346;-1.688;2023-04-29T09:30:23;14.90;99.90
28171;DHT22;15458;53.346;-1.688;2023-04-29T09:33:08;15.20;99.90
28171;DHT22;15458;53.346;-1.688;2023-04-29T09:35:34;15.50;99.90
28171;DHT22;15458;53.346;-1.688;2023-04-29T09:38:18;15.70;99.90
28171;DHT22;15458;53.346;-1.688;2023-04-29T09:40:45;15.90;99.90
28171;DHT22;15458;53.346;-1.688;2023-04-29T09:43:18;16.10;99.90
28171;DHT22;15458;53.346;-1.688;2023-04-29T09:45:45;16.30;99.90
28171;DHT22;15458;53.346;-1.688;2023-04-29T09:48:12;16.50;99.90
28171;DHT22;15458;53.346;-1.688;2023-04-29T09:50:39;16.70;99.90
28171;DHT22;15458;53.346;-1.688;2023-04-29T09:53:07;16.80;99.90
28171;DHT22;15458;53.346;-1.688;2023-04-29T09:56:00;16.90;99.90
28171;DHT22;15458;53.346;-1.688;2023-04-29T09:58:33;17.00;99.90
28171;DHT22;15458;53.346;-1.688;2023-04-29T10:01:03;17.20;99.90
28171;DHT22;15458;53.346;-1.688;2023-04-29T10:03:34;17.40;99.90
28171;DHT22;15458;53.346;-1.688;2023-04-29T10:06:01;17.60;99.90
28171;DHT22;15458;53.346;-1.688;2023-04-29T10:08:31;17.70;99.90
28171;DHT22;15458;53.346;-1.688;2023-04-29T10:11:02;17.90;99.90
28171;DHT22;15458;53.346;-1.688;2023-04-29T10:13:29;18.10;99.90
28171;DHT22;15458;53.346;-1.688;2023-04-29T10:18:48;18.40;99.50
28171;DHT22;15458;53.346;-1.688;2023-04-29T10:21:17;18.60;98.30
28171;DHT22;15458;53.346;-1.688;2023-04-29T10:23:46;18.80;96.50
28171;DHT22;15458;53.346;-1.688;2023-04-29T10:26:14;18.90;94.90
28171;DHT22;15458;53.346;-1.688;2023-04-29T10:28:42;19.00;92.90
28171;DHT22;15458;53.346;-1.688;2023-04-29T10:31:11;19.00;91.70
28171;DHT22;15458;53.346;-1.688;2023-04-29T10:33:39;19.00;91.20
28171;DHT22;15458;53.346;-1.688;2023-04-29T10:36:09;18.90;89.70
28171;DHT22;15458;53.346;-1.688;2023-04-29T10:38:48;19.10;89.30
28171;DHT22;15458;53.346;-1.688;2023-04-29T10:41:29;19.00;86.80
28171;DHT22;15458;53.346;-1.688;2023-04-29T10:43:58;19.00;85.80
28171;DHT22;15458;53.346;-1.688;2023-04-29T10:46:25;19.00;86.50
28171;DHT22;15458;53.346;-1.688;2023-04-29T10:49:05;19.00;86.00
28171;DHT22;15458;53.346;-1.688;2023-04-29T10:51:39;19.00;86.10
28171;DHT22;15458;53.346;-1.688;2023-04-29T10:54:24;19.00;85.90
28171;DHT22;15458;53.346;-1.688;2023-04-29T10:56:53;19.00;84.80
28171;DHT22;15458;53.346;-1.688;2023-04-29T11:01:49;18.70;84.50
28171;DHT22;15458;53.346;-1.688;2023-04-29T11:04:16;18.60;84.70
28171;DHT22;15458;53.346;-1.688;2023-04-29T11:07:01;18.60;84.50
28171;DHT22;15458;53.346;-1.688;2023-04-29T11:09:29;18.50;84.20
28171;DHT22;15458;53.346;-1.688;2023-04-29T11:11:55;18.50;84.50
28171;DHT22;15458;53.346;-1.688;2023-04-29T11:14:48;18.60;84.60
28171;DHT22;15458;53.346;-1.688;2023-04-29T11:17:16;18.80;84.90
28171;DHT22;15458;53.346;-1.688;2023-04-29T11:19:43;19.10;84.00
28171;DHT22;15458;53.346;-1.688;2023-04-29T11:22:24;19.30;83.50
28171;DHT22;15458;53.346;-1.688;2023-04-29T11:24:59;19.50;82.90
28171;DHT22;15458;53.346;-1.688;2023-04-29T11:27:29;19.60;81.90
28171;DHT22;15458;53.346;-1.688;2023-04-29T11:29:56;19.60;81.40
28171;DHT22;15458;53.346;-1.688;2023-04-29T11:32:26;19.60;80.90
28171;DHT22;15458;53.346;-1.688;2023-04-29T11:34:52;19.60;80.40
28171;DHT22;15458;53.346;-1.688;2023-04-29T11:37:25;19.60;80.10
28171;DHT22;15458;53.346;-1.688;2023-04-29T11:40:00;19.50;79.90
28171;DHT22;15458;53.346;-1.688;2023-04-29T11:42:26;19.50;80.20
28171;DHT22;15458;53.346;-1.688;2023-04-29T11:44:54;19.40;80.00
28171;DHT22;15458;53.346;-1.688;2023-04-29T11:47:26;19.30;79.80
28171;DHT22;15458;53.346;-1.688;2023-04-29T11:49:52;19.10;79.80
28171;DHT22;15458;53.346;-1.688;2023-04-29T11:52:19;19.00;80.00
28171;DHT22;15458;53.346;-1.688;2023-04-29T11:54:46;18.90;80.20
28171;DHT22;15458;53.346;-1.688;2023-04-29T11:57:12;18.80;80.50
28171;DHT22;15458;53.346;-1.688;2023-04-29T11:59:40;18.80;80.90
28171;DHT22;15458;53.346;-1.688;2023-04-29T12:02:11;18.70;81.20
28171;DHT22;15458;53.346;-1.688;2023-04-29T12:04:45;18.60;81.20
28171;DHT22;15458;53.346;-1.688;2023-04-29T12:07:16;18.50;81.40
28171;DHT22;15458;53.346;-1.688;2023-04-29T12:09:42;18.40;81.50
28171;DHT22;15458;53.346;-1.688;2023-04-29T12:12:08;18.30;82.20
28171;DHT22;15458;53.346;-1.688;2023-04-29T12:14:34;18.20;82.50
28171;DHT22;15458;53.346;-1.688;2023-04-29T12:17:00;18.20;82.80
28171;DHT22;15458;53.346;-1.688;2023-04-29T12:19:26;18.20;83.60
28171;DHT22;15458;53.346;-1.688;2023-04-29T12:21:52;18.20;84.30
28171;DHT22;15458;53.346;-1.688;2023-04-29T12:24:20;18.20;85.00
28171;DHT22;15458;53.346;-1.688;2023-04-29T12:26:45;18.30;85.40
28171;DHT22;15458;53.346;-1.688;2023-04-29T12:29:12;18.60;85.40
28171;DHT22;15458;53.346;-1.688;2023-04-29T12:31:38;19.00;85.00
28171;DHT22;15458;53.346;-1.688;2023-04-29T12:34:04;19.30;83.90
28171;DHT22;15458;53.346;-1.688;2023-04-29T12:36:30;19.60;81.70
28171;DHT22;15458;53.346;-1.688;2023-04-29T12:38:58;19.80;80.80
28171;DHT22;15458;53.346;-1.688;2023-04-29T12:41:40;20.10;80.20
28171;DHT22;15458;53.346;-1.688;2023-04-29T12:44:07;20.50;79.30
28171;DHT22;15458;53.346;-1.688;2023-04-29T12:46:37;20.80;77.70
28171;DHT22;15458;53.346;-1.688;2023-04-29T12:49:04;20.90;75.70
28171;DHT22;15458;53.346;-1.688;2023-04-29T12:51:34;20.90;75.10
28171;DHT22;15458;53.346;-1.688;2023-04-29T12:54:02;20.90;74.70
28171;DHT22;15458;53.346;-1.688;2023-04-29T12:56:32;21.00;74.80
28171;DHT22;15458;53.346;-1.688;2023-04-29T12:59:08;21.10;74.70
28171;DHT22;15458;53.346;-1.688;2023-04-29T13:01:37;21.40;74.60
28171;DHT22;15458;53.346;-1.688;2023-04-29T13:04:03;21.50;74.20
28171;DHT22;15458;53.346;-1.688;2023-04-29T13:06:30;21.30;73.90
28171;DHT22;15458;53.346;-1.688;2023-04-29T13:08:56;20.90;74.30
28171;DHT22;15458;53.346;-1.688;2023-04-29T13:11:22;20.70;75.50
28171;DHT22;15458;53.346;-1.688;2023-04-29T13:13:48;20.70;76.50
28171;DHT22;15458;53.346;-1.688;2023-04-29T13:16:13;20.70;77.00
28171;DHT22;15458;53.346;-1.688;2023-04-29T13:18:39;20.70;77.30
28171;DHT22;15458;53.346;-1.688;2023-04-29T13:21:06;20.60;77.40
28171;DHT22;15458;53.346;-1.688;2023-04-29T13:23:31;20.60;77.70
28171;DHT22;15458;53.346;-1.688;2023-04-29T13:25:57;20.70;77.70
28171;DHT22;15458;53.346;-1.688;2023-04-29T13:28:23;20.70;77.20
28171;DHT22;15458;53.346;-1.688;2023-04-29T13:30:49;20.90;76.80
28171;DHT22;15458;53.346;-1.688;2023-04-29T13:33:15;21.10;75.70
28171;DHT22;15458;53.346;-1.688;2023-04-29T13:35:40;21.40;75.30
28171;DHT22;15458;53.346;-1.688;2023-04-29T13:38:07;21.60;75.00
28171;DHT22;15458;53.346;-1.688;2023-04-29T13:40:33;21.80;73.70
28171;DHT22;15458;53.346;-1.688;2023-04-29T13:42:58;21.80;73.20
28171;DHT22;15458;53.346;-1.688;2023-04-29T13:45:24;21.90;73.20
28171;DHT22;15458;53.346;-1.688;2023-04-29T13:47:50;22.00;72.80
28171;DHT22;15458;53.346;-1.688;2023-04-29T13:50:16;22.10;72.50
28171;DHT22;15458;53.346;-1.688;2023-04-29T13:52:42;22.30;71.80
28171;DHT22;15458;53.346;-1.688;2023-04-29T13:55:08;22.50;71.70
28171;DHT22;15458;53.346;-1.688;2023-04-29T13:57:33;22.70;71.00
28171;DHT22;15458;53.346;-1.688;2023-04-29T13:59:59;22.90;70.70
28171;DHT22;15458;53.346;-1.688;2023-04-29T14:02:25;23.10;70.00
28171;DHT22;15458;53.346;-1.688;2023-04-29T14:04:50;23.20;68.20
28171;DHT22;15458;53.346;-1.688;2023-04-29T14:07:16;23.30;67.50
28171;DHT22;15458;53.346;-1.688;2023-04-29T14:09:42;23.40;66.70
28171;DHT22;15458;53.346;-1.688;2023-04-29T14:12:08;23.30;65.70
28171;DHT22;15458;53.346;-1.688;2023-04-29T14:14:33;23.10;65.20
28171;DHT22;15458;53.346;-1.688;2023-04-29T14:16:59;22.90;65.00
28171;DHT22;15458;53.346;-1.688;2023-04-29T14:19:26;22.40;64.70
28171;DHT22;15458;53.346;-1.688;2023-04-29T14:21:51;22.10;65.50
28171;DHT22;15458;53.346;-1.688;2023-04-29T14:24:17;21.80;66.30
28171;DHT22;15458;53.346;-1.688;2023-04-29T14:26:42;21.40;66.10
28171;DHT22;15458;53.346;-1.688;2023-04-29T14:29:08;21.00;65.90
28171;DHT22;15458;53.346;-1.688;2023-04-29T14:31:35;20.60;66.20
28171;DHT22;15458;53.346;-1.688;2023-04-29T14:34:02;20.30;66.40
28171;DHT22;15458;53.346;-1.688;2023-04-29T14:36:28;20.00;67.20
28171;DHT22;15458;53.346;-1.688;2023-04-29T14:38:53;19.70;68.00
28171;DHT22;15458;53.346;-1.688;2023-04-29T14:41:19;19.60;69.00
28171;DHT22;15458;53.346;-1.688;2023-04-29T14:43:47;19.60;69.60
28171;DHT22;15458;53.346;-1.688;2023-04-29T14:46:13;19.50;69.90
28171;DHT22;15458;53.346;-1.688;2023-04-29T14:48:39;19.40;69.80
28171;DHT22;15458;53.346;-1.688;2023-04-29T14:51:05;19.40;70.20
28171;DHT22;15458;53.346;-1.688;2023-04-29T14:53:31;19.40;70.20
28171;DHT22;15458;53.346;-1.688;2023-04-29T14:55:56;19.40;70.10
28171;DHT22;15458;53.346;-1.688;2023-04-29T14:58:22;19.50;70.00
28171;DHT22;15458;53.346;-1.688;2023-04-29T15:00:48;19.50;70.20
28171;DHT22;15458;53.346;-1.688;2023-04-29T15:03:15;19.40;70.80
28171;DHT22;15458;53.346;-1.688;2023-04-29T15:05:41;19.30;71.50
28171;DHT22;15458;53.346;-1.688;2023-04-29T15:08:07;19.20;72.10
28171;DHT22;15458;53.346;-1.688;2023-04-29T15:10:33;19.00;72.60
28171;DHT22;15458;53.346;-1.688;2023-04-29T15:12:58;18.90;73.00
28171;DHT22;15458;53.346;-1.688;2023-04-29T15:15:25;18.70;73.60
28171;DHT22;15458;53.346;-1.688;2023-04-29T15:17:51;18.60;73.80
28171;DHT22;15458;53.346;-1.688;2023-04-29T15:20:16;18.50;74.10
28171;DHT22;15458;53.346;-1.688;2023-04-29T15:22:42;18.50;74.60
28171;DHT22;15458;53.346;-1.688;2023-04-29T15:25:08;18.40;75.00
28171;DHT22;15458;53.346;-1.688;2023-04-29T15:27:37;18.20;75.30
28171;DHT22;15458;53.346;-1.688;2023-04-29T15:30:04;18.10;75.70
28171;DHT22;15458;53.346;-1.688;2023-04-29T15:32:30;18.00;76.30
28171;DHT22;15458;53.346;-1.688;2023-04-29T15:35:03;17.90;77.10
28171;DHT22;15458;53.346;-1.688;2023-04-29T15:37:30;17.80;78.30
28171;DHT22;15458;53.346;-1.688;2023-04-29T15:40:00;17.60;78.80
28171;DHT22;15458;53.346;-1.688;2023-04-29T15:42:26;17.50;79.50
28171;DHT22;15458;53.346;-1.688;2023-04-29T15:44:52;17.30;80.30